Station History

Weather Underground - logo

Station Historical Data
Daily Summary for August 13, 2017 Units:  English    Metric   Both
« Previous Day
Next Day »
Daily Weekly Monthly Yearly Custom
  High: Low: Average:
Temperature: 100.5 °F 64.2 °F 82.3 °F
Dew Point: 63.1 °F 44.0 °F 56.8 °F
Humidity: 83 % 15 % 48 %
Wind Speed: 6.0 mph 0.0 mph 1.3 mph
Wind Gust: 6.0 mph - -
Wind:- - SW
Pressure: 29.85 in 29.72 in -
Precipitation: 0.00 in    
Historical Graphs
 
 
Tabular Data for August 13, 2017
Time Temperature Dew Point Pressure Wind Wind Speed Wind Gust Humidity Rainfall Rate (Hourly)
00:04 79.1 °F 59.4 °F 29.79 in Calm     51 % 0.00 in
00:09 78.8 °F 58.6 °F 29.78 in Calm     50 % 0.00 in
00:14 78.8 °F 59.1 °F 29.79 in WNW 1.2 mph 1.2 mph 51 % 0.00 in
00:19 78.5 °F 58.9 °F 29.79 in Calm     51 % 0.00 in
00:24 78.3 °F 59.2 °F 29.79 in Calm     52 % 0.00 in
00:29 78.3 °F 59.8 °F 29.79 in Calm     53 % 0.00 in
00:34 78.1 °F 59.6 °F 29.79 in Calm     53 % 0.00 in
00:39 77.6 °F 59.1 °F 29.79 in Calm     53 % 0.00 in
00:44 77.1 °F 60.2 °F 29.79 in Calm     56 % 0.00 in
00:49 76.4 °F 60.5 °F 29.79 in Calm     58 % 0.00 in
00:54 75.7 °F 60.8 °F 29.79 in Calm     60 % 0.00 in
00:59 74.8 °F 61.4 °F 29.79 in Calm     63 % 0.00 in
01:04 73.8 °F 60.9 °F 29.79 in Calm     64 % 0.00 in
01:09 73.1 °F 60.2 °F 29.79 in Calm     64 % 0.00 in
01:14 72.7 °F 60.3 °F 29.79 in Calm     65 % 0.00 in
01:19 72.3 °F 60.7 °F 29.79 in Calm     67 % 0.00 in
01:24 72.1 °F 60.1 °F 29.79 in Calm     66 % 0.00 in
01:29 72.0 °F 60.9 °F 29.79 in Calm     68 % 0.00 in
01:34 71.8 °F 61.5 °F 29.79 in Calm     70 % 0.00 in
01:39 71.5 °F 60.8 °F 29.79 in Calm     69 % 0.00 in
01:44 71.0 °F 60.3 °F 29.79 in Calm     69 % 0.00 in
01:50 70.5 °F 60.2 °F 29.79 in Calm     70 % 0.00 in
01:55 69.9 °F 60.8 °F 29.79 in Calm     73 % 0.00 in
02:00 69.5 °F 60.5 °F 29.79 in Calm     73 % 0.00 in
02:05 69.1 °F 60.5 °F 29.79 in Calm     74 % 0.00 in
02:10 68.7 °F 60.5 °F 29.79 in Calm     75 % 0.00 in
02:15 68.6 °F 60.7 °F 29.80 in Calm     76 % 0.00 in
02:20 68.6 °F 60.7 °F 29.80 in Calm     76 % 0.00 in
02:25 68.5 °F 60.6 °F 29.80 in Calm     76 % 0.00 in
02:30 68.4 °F 60.2 °F 29.80 in Calm     75 % 0.00 in
02:35 68.3 °F 60.4 °F 29.80 in Calm     76 % 0.00 in
02:40 68.1 °F 60.2 °F 29.80 in Calm     76 % 0.00 in
02:45 67.9 °F 60.1 °F 29.80 in Calm     76 % 0.00 in
02:50 67.5 °F 60.0 °F 29.80 in Calm     77 % 0.00 in
02:55 67.4 °F 59.9 °F 29.79 in Calm     77 % 0.00 in
03:00 67.6 °F 59.8 °F 29.79 in Calm     76 % 0.00 in
03:05 67.8 °F 60.0 °F 29.79 in Calm     76 % 0.00 in
03:07 67.8 °F 60.0 °F 29.79 in Calm     76 % 0.00 in
03:12 67.7 °F 59.9 °F 29.79 in Calm     76 % 0.00 in
03:17 67.4 °F 59.9 °F 29.79 in Calm     77 % 0.00 in
03:22 67.1 °F 60.0 °F 29.79 in Calm     78 % 0.00 in
03:27 66.8 °F 59.7 °F 29.79 in Calm     78 % 0.00 in
03:32 66.6 °F 59.9 °F 29.79 in Calm     79 % 0.00 in
03:37 66.3 °F 59.6 °F 29.80 in Calm     79 % 0.00 in
03:42 66.0 °F 59.3 °F 29.79 in Calm     79 % 0.00 in
03:47 65.9 °F 59.6 °F 29.79 in Calm     80 % 0.00 in
03:52 65.8 °F 59.5 °F 29.80 in Calm     80 % 0.00 in
03:57 65.6 °F 59.3 °F 29.80 in Calm     80 % 0.00 in
04:02 65.5 °F 59.5 °F 29.80 in Calm     81 % 0.00 in
04:07 65.4 °F 59.4 °F 29.80 in Calm     81 % 0.00 in
04:12 65.4 °F 59.4 °F 29.80 in Calm     81 % 0.00 in
04:17 65.4 °F 59.8 °F 29.80 in Calm     82 % 0.00 in
04:22 65.3 °F 59.7 °F 29.80 in Calm     82 % 0.00 in
04:27 65.1 °F 59.5 °F 29.80 in Calm     82 % 0.00 in
04:32 65.0 °F 59.4 °F 29.80 in Calm     82 % 0.00 in
04:37 64.9 °F 59.3 °F 29.80 in Calm     82 % 0.00 in
04:42 64.9 °F 59.6 °F 29.80 in Calm     83 % 0.00 in
04:47 64.9 °F 59.3 °F 29.80 in Calm     82 % 0.00 in
04:52 65.0 °F 59.4 °F 29.80 in SE 1.2 mph 1.2 mph 82 % 0.00 in
04:57 65.0 °F 59.4 °F 29.80 in Calm     82 % 0.00 in
05:02 65.0 °F 59.4 °F 29.80 in SE 1.2 mph   82 % 0.00 in
05:07 65.2 °F 59.2 °F 29.81 in SE 1.2 mph 1.2 mph 81 % 0.00 in
05:12 65.3 °F 59.3 °F 29.81 in SE 1.2 mph 1.2 mph 81 % 0.00 in
05:17 65.3 °F 59.0 °F 29.81 in SE 1.2 mph 1.2 mph 80 % 0.00 in
05:22 65.4 °F 59.1 °F 29.81 in SE 1.2 mph   80 % 0.00 in
05:27 65.3 °F 59.0 °F 29.81 in Calm     80 % 0.00 in
05:32 65.1 °F 58.8 °F 29.81 in Calm     80 % 0.00 in
05:37 64.9 °F 58.6 °F 29.81 in Calm     80 % 0.00 in
05:42 64.9 °F 58.6 °F 29.81 in Calm     80 % 0.00 in
05:47 65.1 °F 58.4 °F 29.82 in ESE 1.2 mph 1.2 mph 79 % 0.00 in
05:52 65.2 °F 58.5 °F 29.82 in SE 1.2 mph 1.2 mph 79 % 0.00 in
05:57 65.1 °F 58.4 °F 29.82 in ESE 1.2 mph 1.2 mph 79 % 0.00 in
06:02 65.0 °F 58.3 °F 29.82 in SE 1.2 mph 1.2 mph 79 % 0.00 in
06:07 64.9 °F 58.2 °F 29.82 in Calm     79 % 0.00 in
06:12 64.8 °F 58.5 °F 29.82 in Calm     80 % 0.00 in
06:17 64.5 °F 58.5 °F 29.82 in Calm     81 % 0.00 in
06:22 64.4 °F 58.4 °F 29.83 in Calm     81 % 0.00 in
06:27 64.3 °F 58.7 °F 29.83 in Calm     82 % 0.00 in
06:32 64.3 °F 58.7 °F 29.83 in Calm     82 % 0.00 in
06:37 64.2 °F 58.2 °F 29.83 in Calm     81 % 0.00 in
06:42 64.2 °F 58.6 °F 29.83 in Calm     82 % 0.00 in
06:47 64.3 °F 58.3 °F 29.83 in SE 1.2 mph   81 % 0.00 in
06:52 64.6 °F 58.3 °F 29.83 in Calm     80 % 0.00 in
06:57 65.0 °F 58.3 °F 29.83 in SE 1.0 mph   79 % 0.00 in
07:02 65.4 °F 58.7 °F 29.83 in Calm     79 % 0.00 in
07:07 65.7 °F 58.7 °F 29.83 in Calm     78 % 0.00 in
07:12 66.0 °F 58.9 °F 29.83 in SE 1.2 mph 1.2 mph 78 % 0.00 in
07:17 66.3 °F 59.2 °F 29.83 in SE 2.3 mph   78 % 0.00 in
07:22 66.7 °F 59.3 °F 29.83 in SE 1.2 mph   77 % 0.00 in
07:27 67.5 °F 59.7 °F 29.84 in SE 1.2 mph   76 % 0.00 in
07:33 68.8 °F 60.2 °F 29.84 in SE 1.2 mph   74 % 0.00 in
07:38 70.0 °F 60.2 °F 29.84 in SE 1.2 mph 1.2 mph 71 % 0.00 in
07:43 71.0 °F 60.3 °F 29.84 in SE 1.2 mph 1.2 mph 69 % 0.00 in
07:48 71.9 °F 60.3 °F 29.84 in South 2.3 mph 2.3 mph 67 % 0.00 in
07:53 72.7 °F 60.3 °F 29.84 in SE 1.2 mph 1.2 mph 65 % 0.00 in
07:54 72.9 °F 60.9 °F 29.84 in SE 1.2 mph   66 % 0.00 in
07:59 73.5 °F 60.1 °F 29.84 in ESE 2.3 mph 2.3 mph 63 % 0.00 in
08:04 74.0 °F 61.0 °F 29.84 in ESE 1.2 mph 1.2 mph 64 % 0.00 in
08:09 74.6 °F 60.7 °F 29.84 in ESE 1.2 mph 1.2 mph 62 % 0.00 in
08:14 75.1 °F 60.3 °F 29.84 in SSE 2.0 mph 2.0 mph 60 % 0.00 in
08:19 75.7 °F 60.4 °F 29.84 in ESE 2.3 mph 2.3 mph 59 % 0.00 in
08:24 76.4 °F 60.5 °F 29.85 in SE 2.3 mph 2.3 mph 58 % 0.00 in
08:29 77.2 °F 60.3 °F 29.85 in SE 2.3 mph 2.3 mph 56 % 0.00 in
08:34 77.7 °F 61.3 °F 29.85 in ESE 1.2 mph 1.2 mph 57 % 0.00 in
08:39 78.3 °F 60.8 °F 29.84 in SE 3.5 mph 3.5 mph 55 % 0.00 in
08:44 78.6 °F 60.6 °F 29.84 in SSE 2.3 mph 2.3 mph 54 % 0.00 in
08:49 78.7 °F 60.1 °F 29.84 in East 2.3 mph 2.3 mph 53 % 0.00 in
08:54 79.4 °F 61.8 °F 29.84 in Calm     55 % 0.00 in
08:59 80.3 °F 61.1 °F 29.84 in SE 1.2 mph 1.2 mph 52 % 0.00 in
09:04 80.8 °F 59.9 °F 29.84 in ESE 3.5 mph 3.5 mph 49 % 0.00 in
09:09 81.1 °F 60.7 °F 29.84 in ESE 3.5 mph 3.5 mph 50 % 0.00 in
09:14 81.6 °F 60.6 °F 29.84 in SE 2.3 mph 2.3 mph 49 % 0.00 in
09:19 81.7 °F 60.1 °F 29.84 in ESE 3.5 mph 3.5 mph 48 % 0.00 in
09:24 82.0 °F 61.0 °F 29.84 in SSE 3.5 mph 3.5 mph 49 % 0.00 in
09:29 82.4 °F 59.5 °F 29.84 in East 3.5 mph 3.5 mph 46 % 0.00 in
09:34 82.8 °F 60.5 °F 29.84 in SE 3.5 mph 3.5 mph 47 % 0.00 in
09:39 83.6 °F 60.6 °F 29.85 in SE 3.5 mph 3.5 mph 46 % 0.00 in
09:44 84.1 °F 61.1 °F 29.85 in SSW 2.3 mph 2.3 mph 46 % 0.00 in
09:49 84.1 °F 61.1 °F 29.85 in South 3.5 mph 3.5 mph 46 % 0.00 in
09:54 84.2 °F 59.9 °F 29.85 in East 6.0 mph 6.0 mph 44 % 0.00 in
09:59 84.1 °F 61.1 °F 29.85 in SSE 3.0 mph 3.0 mph 46 % 0.00 in
10:04 84.5 °F 62.1 °F 29.84 in SE 1.2 mph 1.2 mph 47 % 0.00 in
10:06 84.8 °F 61.1 °F 29.84 in SSE 3.5 mph 3.5 mph 45 % 0.00 in
10:11 85.2 °F 60.8 °F 29.85 in South 3.5 mph 3.5 mph 44 % 0.00 in
10:16 85.7 °F 61.3 °F 29.85 in ESE 3.0 mph 3.0 mph 44 % 0.00 in
10:21 86.0 °F 60.9 °F 29.85 in ESE 1.2 mph 1.2 mph 43 % 0.00 in
10:26 86.5 °F 61.3 °F 29.85 in East 2.3 mph 2.3 mph 43 % 0.00 in
10:31 86.6 °F 62.1 °F 29.85 in North 2.3 mph 2.3 mph 44 % 0.00 in
10:36 86.6 °F 61.4 °F 29.84 in South 3.5 mph 3.5 mph 43 % 0.00 in
10:41 87.0 °F 60.5 °F 29.84 in WNW 3.5 mph 3.5 mph 41 % 0.00 in
10:46 87.3 °F 62.7 °F 29.85 in SE 1.2 mph 1.2 mph 44 % 0.00 in
10:51 87.3 °F 60.7 °F 29.85 in NNW 2.3 mph 2.3 mph 41 % 0.00 in
10:57 87.4 °F 60.8 °F 29.84 in North 3.5 mph 3.5 mph 41 % 0.00 in
11:02 87.6 °F 59.6 °F 29.84 in NNW 2.3 mph 2.5 mph 39 % 0.00 in
11:07 87.0 °F 60.5 °F 29.84 in North 2.3 mph 2.3 mph 41 % 0.00 in
11:12 87.4 °F 60.8 °F 29.84 in North 2.0 mph 2.0 mph 41 % 0.00 in
11:17 88.0 °F 59.9 °F 29.84 in NW 2.3 mph 2.3 mph 39 % 0.00 in
11:22 88.4 °F 61.0 °F 29.84 in NW 2.3 mph 2.3 mph 40 % 0.00 in
11:27 88.8 °F 62.1 °F 29.84 in North 1.2 mph 1.2 mph 41 % 0.00 in
11:32 89.2 °F 61.0 °F 29.84 in NNW 3.5 mph 3.5 mph 39 % 0.00 in
11:37 89.6 °F 62.8 °F 29.84 in SSE 1.2 mph 1.2 mph 41 % 0.00 in
11:42 89.6 °F 62.1 °F 29.84 in NW 2.3 mph 2.3 mph 40 % 0.00 in
11:47 89.4 °F 61.9 °F 29.83 in North 3.5 mph 3.5 mph 40 % 0.00 in
11:52 90.0 °F 63.1 °F 29.83 in NNE 1.2 mph 1.2 mph 41 % 0.00 in
11:57 90.4 °F 62.1 °F 29.83 in SSE 1.2 mph 1.2 mph 39 % 0.00 in
12:02 91.0 °F 62.6 °F 29.83 in ESE 2.3 mph 2.3 mph 39 % 0.00 in
12:07 91.3 °F 59.8 °F 29.83 in WNW 2.3 mph 2.3 mph 35 % 0.00 in
12:12 91.6 °F 61.6 °F 29.83 in NW 3.5 mph 3.5 mph 37 % 0.00 in
12:17 91.8 °F 60.3 °F 29.83 in NW 2.0 mph 2.0 mph 35 % 0.00 in
12:22 91.8 °F 61.0 °F 29.83 in NW 1.2 mph 1.2 mph 36 % 0.00 in
12:27 92.1 °F 58.0 °F 29.83 in West 3.5 mph 3.5 mph 32 % 0.00 in
12:32 92.2 °F 60.6 °F 29.82 in NE 1.2 mph   35 % 0.00 in
12:37 92.7 °F 57.6 °F 29.82 in NW 3.0 mph 3.0 mph 31 % 0.00 in
12:42 92.5 °F 57.5 °F 29.82 in NW 2.3 mph 2.3 mph 31 % 0.00 in
12:47 93.1 °F 59.7 °F 29.82 in NNE 2.3 mph 2.3 mph 33 % 0.00 in
12:52 93.5 °F 58.3 °F 29.82 in West 1.2 mph 1.2 mph 31 % 0.00 in
12:57 93.9 °F 55.8 °F 29.82 in West 1.2 mph 1.2 mph 28 % 0.00 in
13:02 94.7 °F 57.5 °F 29.82 in SW 1.2 mph 1.2 mph 29 % 0.00 in
13:07 95.0 °F 60.5 °F 29.81 in SE 1.2 mph 1.2 mph 32 % 0.00 in
13:10 95.4 °F 60.0 °F 29.81 in WNW 2.0 mph 2.0 mph 31 % 0.00 in
13:16 95.6 °F 61.0 °F 29.81 in South 1.2 mph 1.2 mph 32 % 0.00 in
13:20 96.3 °F 58.9 °F 29.81 in North 2.3 mph 2.3 mph 29 % 0.00 in
13:26 96.5 °F 57.1 °F 29.81 in NNW 3.5 mph 3.5 mph 27 % 0.00 in
13:31 96.7 °F 56.2 °F 29.81 in North 1.2 mph 1.2 mph 26 % 0.00 in
13:36 97.1 °F 55.4 °F 29.81 in NNE 2.3 mph 2.3 mph 25 % 0.00 in
13:41 97.0 °F 55.3 °F 29.80 in NW 1.2 mph 1.2 mph 25 % 0.00 in
13:46 97.5 °F 53.5 °F 29.80 in NW 2.3 mph 2.3 mph 23 % 0.00 in
13:51 97.8 °F 56.0 °F 29.80 in East 2.3 mph 2.3 mph 25 % 0.00 in
13:56 97.6 °F 52.3 °F 29.80 in NW 2.3 mph 2.3 mph 22 % 0.00 in
14:01 97.4 °F 52.2 °F 29.80 in WNW 2.3 mph 2.3 mph 22 % 0.00 in
14:06 98.1 °F 54.0 °F 29.79 in Calm     23 % 0.00 in
14:11 98.2 °F 51.6 °F 29.79 in NW 2.3 mph 2.3 mph 21 % 0.00 in
14:16 98.2 °F 51.6 °F 29.79 in NNW 3.5 mph 3.5 mph 21 % 0.00 in
14:21 97.8 °F 53.7 °F 29.79 in East 2.3 mph 2.3 mph 23 % 0.00 in
14:26 98.2 °F 55.2 °F 29.78 in East 2.3 mph 2.3 mph 24 % 0.00 in
14:31 98.9 °F 55.8 °F 29.78 in South 1.2 mph 1.2 mph 24 % 0.00 in
14:36 99.2 °F 58.3 °F 29.78 in WNW 2.3 mph 2.3 mph 26 % 0.00 in
14:41 99.2 °F 53.7 °F 29.78 in NNE 3.5 mph 3.5 mph 22 % 0.00 in
14:46 99.3 °F 55.0 °F 29.78 in NW 1.2 mph 1.2 mph 23 % 0.00 in
14:51 99.2 °F 52.4 °F 29.77 in WNW 3.5 mph 3.5 mph 21 % 0.00 in
14:56 98.8 °F 54.6 °F 29.77 in NNE 3.0 mph 3.0 mph 23 % 0.00 in
15:01 98.9 °F 52.2 °F 29.77 in WNW 1.2 mph 1.2 mph 21 % 0.00 in
15:06 99.1 °F 56.0 °F 29.77 in South 1.2 mph 1.2 mph 24 % 0.00 in
15:11 99.4 °F 52.6 °F 29.77 in NE 3.5 mph 3.5 mph 21 % 0.00 in
15:16 99.5 °F 52.7 °F 29.76 in NNW 3.5 mph 3.5 mph 21 % 0.00 in
15:21 99.5 °F 53.9 °F 29.76 in NNW 2.3 mph 2.3 mph 22 % 0.00 in
15:26 99.7 °F 52.8 °F 29.76 in West 3.5 mph 3.5 mph 21 % 0.00 in
15:31 100.1 °F 53.1 °F 29.76 in North 2.3 mph 2.3 mph 21 % 0.00 in
15:36 99.8 °F 51.6 °F 29.75 in WNW 3.0 mph 3.0 mph 20 % 0.00 in
15:41 99.5 °F 49.9 °F 29.75 in WNW 3.5 mph 3.5 mph 19 % 0.00 in
15:46 99.5 °F 52.7 °F 29.75 in West 3.5 mph 3.5 mph 21 % 0.00 in
15:51 99.8 °F 50.2 °F 29.75 in NW 2.3 mph 2.3 mph 19 % 0.00 in
15:56 100.1 °F 53.1 °F 29.75 in WNW 1.2 mph 1.2 mph 21 % 0.00 in
16:01 100.4 °F 54.7 °F 29.75 in NW 1.2 mph   22 % 0.00 in
16:06 100.5 °F 50.8 °F 29.75 in NNW 3.5 mph 3.5 mph 19 % 0.00 in
16:11 100.3 °F 50.6 °F 29.74 in WNW 2.3 mph 2.3 mph 19 % 0.00 in
16:16 100.1 °F 50.4 °F 29.74 in WNW 2.3 mph 2.3 mph 19 % 0.00 in
16:21 99.9 °F 50.3 °F 29.74 in NW 2.3 mph 2.3 mph 19 % 0.00 in
16:26 99.7 °F 51.5 °F 29.74 in WSW 3.5 mph 3.5 mph 20 % 0.00 in
16:31 100.1 °F 53.1 °F 29.74 in NE 2.3 mph 2.3 mph 21 % 0.00 in
16:36 100.3 °F 50.6 °F 29.74 in North 3.5 mph 3.5 mph 19 % 0.00 in
16:41 100.3 °F 52.0 °F 29.74 in WNW 2.3 mph 2.3 mph 20 % 0.00 in
16:46 100.4 °F 44.4 °F 29.74 in NW 3.0 mph 3.0 mph 15 % 0.00 in
16:51 100.2 °F 49.1 °F 29.73 in WNW 1.2 mph 1.2 mph 18 % 0.00 in
16:56 100.3 °F 47.6 °F 29.73 in East 1.2 mph 1.2 mph 17 % 0.00 in
17:01 100.1 °F 44.1 °F 29.73 in WSW 3.5 mph 3.5 mph 15 % 0.00 in
17:06 100.0 °F 45.8 °F 29.73 in NW 3.5 mph 3.5 mph 16 % 0.00 in
17:11 99.9 °F 44.0 °F 29.73 in WNW 3.5 mph 3.5 mph 15 % 0.00 in
17:16 100.0 °F 47.4 °F 29.73 in West 1.2 mph 1.2 mph 17 % 0.00 in
17:21 99.9 °F 45.7 °F 29.73 in NW 3.5 mph 3.5 mph 16 % 0.00 in
17:26 99.8 °F 47.2 °F 29.73 in NNW 2.3 mph 2.3 mph 17 % 0.00 in
17:31 99.4 °F 48.4 °F 29.73 in NW 2.3 mph 2.3 mph 18 % 0.00 in
17:36 98.9 °F 49.5 °F 29.73 in NNE 3.5 mph 3.5 mph 19 % 0.00 in
17:41 98.5 °F 47.7 °F 29.73 in NNW 3.5 mph 3.5 mph 18 % 0.00 in
17:46 98.0 °F 47.3 °F 29.73 in NW 3.5 mph 3.5 mph 18 % 0.00 in
17:51 97.8 °F 47.1 °F 29.72 in WNW 4.0 mph 4.0 mph 18 % 0.00 in
17:56 97.5 °F 49.7 °F 29.72 in NW 3.5 mph 3.5 mph 20 % 0.00 in
18:01 97.2 °F 46.6 °F 29.72 in WNW 3.5 mph 3.5 mph 18 % 0.00 in
18:07 97.0 °F 46.5 °F 29.72 in NNW 4.0 mph 4.0 mph 18 % 0.00 in
18:12 97.0 °F 46.5 °F 29.72 in NW 3.5 mph 3.5 mph 18 % 0.00 in
18:17 96.8 °F 49.1 °F 29.72 in North 3.5 mph 3.5 mph 20 % 0.00 in
18:22 96.5 °F 48.9 °F 29.72 in WNW 3.5 mph 3.5 mph 20 % 0.00 in
18:27 96.2 °F 52.4 °F 29.72 in NW 2.3 mph 2.3 mph 23 % 0.00 in
18:32 95.9 °F 52.1 °F 29.72 in NW 3.5 mph 3.5 mph 23 % 0.00 in
18:37 95.7 °F 52.0 °F 29.72 in NW 3.5 mph 3.5 mph 23 % 0.00 in
18:42 95.6 °F 51.9 °F 29.72 in NW 2.3 mph 2.3 mph 23 % 0.00 in
18:47 95.0 °F 51.4 °F 29.72 in NW 1.2 mph 1.2 mph 23 % 0.00 in
18:52 94.4 °F 52.0 °F 29.72 in NW 1.2 mph 1.2 mph 24 % 0.00 in
18:57 93.8 °F 50.4 °F 29.72 in WNW 2.3 mph 2.3 mph 23 % 0.00 in
19:02 93.4 °F 52.3 °F 29.72 in WNW 1.2 mph   25 % 0.00 in
19:07 92.9 °F 53.0 °F 29.72 in WNW 1.2 mph 1.2 mph 26 % 0.00 in
19:12 92.3 °F 52.5 °F 29.72 in WNW 1.2 mph 1.2 mph 26 % 0.00 in
19:17 91.7 °F 53.0 °F 29.72 in NW 1.2 mph 1.2 mph 27 % 0.00 in
19:22 91.3 °F 53.6 °F 29.72 in NW 1.2 mph 1.2 mph 28 % 0.00 in
19:27 90.9 °F 52.3 °F 29.72 in NW 1.2 mph 1.2 mph 27 % 0.00 in
19:32 90.5 °F 52.9 °F 29.72 in NW 1.2 mph 1.2 mph 28 % 0.00 in
19:37 90.1 °F 52.6 °F 29.72 in NW 1.2 mph 1.2 mph 28 % 0.00 in
19:42 89.6 °F 51.2 °F 29.72 in NNE 1.2 mph 1.2 mph 27 % 0.00 in
19:47 89.0 °F 51.7 °F 29.72 in WNW 1.2 mph   28 % 0.00 in
19:52 88.5 °F 52.2 °F 29.72 in Calm     29 % 0.00 in
19:53 88.4 °F 52.1 °F 29.72 in Calm     29 % 0.00 in
19:58 87.8 °F 54.3 °F 29.72 in Calm     32 % 0.00 in
20:03 87.1 °F 52.8 °F 29.72 in Calm     31 % 0.00 in
20:08 86.5 °F 52.3 °F 29.72 in WNW 1.2 mph 1.2 mph 31 % 0.00 in
20:13 85.9 °F 54.3 °F 29.73 in Calm     34 % 0.00 in
20:18 85.2 °F 56.0 °F 29.73 in Calm     37 % 0.00 in
20:23 84.4 °F 54.5 °F 29.73 in Calm     36 % 0.00 in
20:28 83.9 °F 57.0 °F 29.73 in Calm     40 % 0.00 in
20:33 83.6 °F 54.6 °F 29.73 in Calm     37 % 0.00 in
20:38 83.5 °F 55.9 °F 29.73 in Calm     39 % 0.00 in
20:43 83.5 °F 53.7 °F 29.73 in Calm     36 % 0.00 in
20:48 83.5 °F 54.5 °F 29.73 in Calm     37 % 0.00 in
20:53 83.4 °F 54.4 °F 29.73 in NW 2.0 mph 2.0 mph 37 % 0.00 in
20:58 83.4 °F 54.4 °F 29.73 in Calm     37 % 0.00 in
21:03 83.1 °F 54.9 °F 29.74 in Calm     38 % 0.00 in
21:08 82.8 °F 54.6 °F 29.74 in Calm     38 % 0.00 in
21:13 82.2 °F 56.8 °F 29.74 in Calm     42 % 0.00 in
21:18 81.6 °F 54.2 °F 29.74 in Calm     39 % 0.00 in
21:23 81.6 °F 54.2 °F 29.74 in Calm     39 % 0.00 in
21:28 81.8 °F 54.4 °F 29.74 in Calm     39 % 0.00 in
21:33 81.8 °F 55.8 °F 29.74 in Calm     41 % 0.00 in
21:38 81.6 °F 54.9 °F 29.74 in Calm     40 % 0.00 in
21:43 81.2 °F 56.6 °F 29.75 in Calm     43 % 0.00 in
21:48 80.6 °F 56.0 °F 29.75 in Calm     43 % 0.00 in
21:53 80.2 °F 55.0 °F 29.75 in Calm     42 % 0.00 in
21:58 80.5 °F 53.3 °F 29.75 in NW 1.2 mph   39 % 0.00 in
22:03 81.0 °F 53.7 °F 29.75 in Calm     39 % 0.00 in
22:08 80.9 °F 55.0 °F 29.75 in Calm     41 % 0.00 in
22:13 80.5 °F 55.3 °F 29.75 in Calm     42 % 0.00 in
22:18 79.8 °F 55.3 °F 29.75 in Calm     43 % 0.00 in
22:23 79.0 °F 55.8 °F 29.75 in Calm     45 % 0.00 in
22:28 78.3 °F 55.2 °F 29.75 in Calm     45 % 0.00 in
22:33 77.9 °F 56.6 °F 29.75 in Calm     48 % 0.00 in
22:38 77.6 °F 55.8 °F 29.75 in Calm     47 % 0.00 in
22:43 76.7 °F 55.5 °F 29.75 in Calm     48 % 0.00 in
22:48 76.0 °F 56.0 °F 29.75 in Calm     50 % 0.00 in
22:53 75.8 °F 55.8 °F 29.76 in Calm     50 % 0.00 in
22:58 75.8 °F 55.3 °F 29.76 in NW 1.0 mph 1.0 mph 49 % 0.00 in
23:03 76.3 °F 54.6 °F 29.76 in Calm     47 % 0.00 in
23:08 76.5 °F 55.3 °F 29.76 in NW 1.2 mph   48 % 0.00 in
23:13 76.6 °F 55.4 °F 29.76 in NW 1.0 mph 1.0 mph 48 % 0.00 in
23:18 76.8 °F 55.6 °F 29.76 in Calm     48 % 0.00 in
23:23 76.9 °F 55.7 °F 29.76 in Calm     48 % 0.00 in
23:28 77.0 °F 55.2 °F 29.76 in NNW 1.0 mph 1.0 mph 47 % 0.00 in
23:33 77.0 °F 55.2 °F 29.76 in NW 1.0 mph 1.0 mph 47 % 0.00 in
23:39 76.9 °F 55.7 °F 29.76 in Calm     48 % 0.00 in
23:44 76.8 °F 56.2 °F 29.76 in NW 1.2 mph 1.2 mph 49 % 0.00 in
23:49 76.6 °F 55.4 °F 29.77 in Calm     48 % 0.00 in
23:54 76.5 °F 55.9 °F 29.77 in Calm     49 % 0.00 in
23:59 76.3 °F 56.3 °F 29.77 in Calm     50 % 0.00 in
Park Place, Exeter, Tulare County, California, USA
Compliments of Weather Underground - 2.75 mb